Garden State — WDH7355 — position and weather

sailwx.info

Track history (hours):
 
Tides and Currents Weather Stations Pressure Air Temp Water Temp Dewpoint Dewpoint Depression Visibility Wind Speed Wind Dir Waves Ship Positions

Garden State

Owner: Port Imperial Fery Corp., Weehawken, NJ. More information available from US FCC via Universal Licensing System and Coast Guard Vessel Documentation Center.

Last reported at 2018-Jun-22 10:40 UTC. Time now 2018-Jun-24 20:43 UTC.
Position N 40°46' W 074°01'.

Length 24 m; draft 2 m.

Type: Passenger vessel. MMSI: 366629680.

Date/timePositionNaut miles runAvg speedWind from/ knotsBaromVisibWave heightAir tempDewpointWater temp
2018-Jun-22 10:40N 40°46' W 074°01'0 0.0
2018-Jun-22 10:30N 40°46' W 074°01'0 0.0
2018-Jun-21 19:20N 40°46' W 074°01'3 9.2
2018-Jun-21 19:00N 40°43' W 074°02'1 1.1
2018-Jun-21 18:30N 40°43' W 074°01'0 0.1
2018-Jun-21 18:00N 40°43' W 074°01'0 0.4
2018-Jun-21 17:30N 40°43' W 074°01'0 0.1
2018-Jun-21 17:00N 40°43' W 074°01'0 0.1
2018-Jun-21 16:31N 40°43' W 074°01'0 0.8
2018-Jun-21 16:00N 40°43' W 074°02'0 0.7
2018-Jun-21 15:30N 40°43' W 074°01'0 0.7
2018-Jun-21 15:00N 40°43' W 074°02'0 0.8
2018-Jun-21 14:30N 40°43' W 074°01'0 0.4
2018-Jun-21 14:00N 40°43' W 074°01'1 2.4
2018-Jun-21 13:30N 40°44' W 074°02'1 2.5
2018-Jun-21 13:01N 40°43' W 074°01'1 2.5
2018-Jun-21 12:30N 40°44' W 074°02'1 2.5
2018-Jun-21 12:00N 40°43' W 074°01'1 2.5
2018-Jun-21 11:30N 40°44' W 074°02'1 2.5
2018-Jun-21 11:00N 40°43' W 074°01'1 0.1
2018-Jun-20 22:56N 40°44' W 074°02'1 2.8
2018-Jun-20 22:30N 40°43' W 074°01'1 2.3
2018-Jun-20 22:00N 40°44' W 074°02'1 2.4
2018-Jun-20 21:30N 40°43' W 074°01'1 2.4
2018-Jun-20 21:00N 40°44' W 074°02'1 2.3
2018-Jun-20 20:31N 40°43' W 074°01'1 2.3
2018-Jun-20 20:00N 40°44' W 074°02'1 2.4
2018-Jun-20 19:30N 40°43' W 074°01'1 1.8
2018-Jun-20 19:00N 40°44' W 074°01'3 0.6
2018-Jun-20 14:53N 40°46' W 074°01'1 3.9
2018-Jun-20 14:31N 40°45' W 074°01'2 3.7
2018-Jun-20 14:00N 40°43' W 074°01'1 2.3
2018-Jun-20 13:30N 40°44' W 074°02'1 2.4
2018-Jun-20 13:00N 40°43' W 074°01'1 2.4
2018-Jun-20 12:30N 40°44' W 074°02'1 2.4
2018-Jun-20 12:00N 40°43' W 074°01'1 2.4
2018-Jun-20 11:30N 40°44' W 074°02'1 2.4
2018-Jun-20 11:00N 40°43' W 074°01'1 2.4
2018-Jun-20 10:30N 40°44' W 074°02'0 0.0
2018-Jun-19 23:00N 40°44' W 074°02'1 2.5
2018-Jun-19 22:30N 40°43' W 074°01'1 2.3
2018-Jun-19 22:00N 40°44' W 074°01'1 2.3
2018-Jun-19 21:31N 40°43' W 074°01'1 2.4
2018-Jun-19 21:00N 40°44' W 074°02'1 2.4
2018-Jun-19 20:30N 40°43' W 074°01'1 2.3
2018-Jun-19 20:00N 40°44' W 074°02'1 2.4
2018-Jun-19 19:30N 40°43' W 074°01'1 1.3
2018-Jun-19 19:00N 40°43' W 074°02'1 1.4
2018-Jun-19 18:30N 40°43' W 074°01'0 0.1
2018-Jun-19 18:00N 40°43' W 074°01'0 0.1
2018-Jun-19 17:30N 40°43' W 074°01'0 0.2
2018-Jun-19 17:01N 40°43' W 074°01'0 0.0
2018-Jun-19 16:31N 40°43' W 074°01'0 0.6
2018-Jun-19 16:00N 40°43' W 074°02'0 0.6
2018-Jun-19 15:30N 40°43' W 074°01'0 0.5
2018-Jun-19 15:01N 40°43' W 074°02'0 0.4
2018-Jun-19 14:30N 40°43' W 074°01'0 0.4
2018-Jun-19 14:00N 40°43' W 074°01'1 2.6
2018-Jun-19 13:30N 40°44' W 074°02'1 2.5
2018-Jun-19 13:00N 40°43' W 074°01'1 2.5
2018-Jun-19 12:30N 40°44' W 074°02'1 2.4
2018-Jun-19 12:00N 40°43' W 074°01'1 2.4
2018-Jun-19 11:30N 40°44' W 074°02'1 2.4
2018-Jun-19 11:00N 40°43' W 074°01'1 2.4
2018-Jun-19 10:30N 40°44' W 074°02'0 0.0
2018-Jun-18 22:56N 40°44' W 074°02'1 2.7
2018-Jun-18 22:30N 40°43' W 074°01'1 2.4
2018-Jun-18 22:00N 40°44' W 074°02'1 2.5
2018-Jun-18 21:30N 40°43' W 074°01'1 2.5
2018-Jun-18 21:00N 40°44' W 074°02'1 2.5
2018-Jun-18 20:30N 40°43' W 074°01'1 2.5
2018-Jun-18 20:00N 40°44' W 074°02'1 2.6
2018-Jun-18 19:30N 40°43' W 074°01'0 0.3
2018-Jun-18 19:00N 40°43' W 074°01'1 2.2
2018-Jun-18 18:30N 40°44' W 074°02'2 0.5
2018-Jun-18 14:16N 40°46' W 074°01'312.6
2018-Jun-18 14:01N 40°43' W 074°01'1 2.4
2018-Jun-18 13:30N 40°44' W 074°02'1 2.4
2018-Jun-18 13:01N 40°43' W 074°01'1 2.5
2018-Jun-18 12:31N 40°44' W 074°02'1 2.5
2018-Jun-18 12:00N 40°43' W 074°01'1 2.5
2018-Jun-18 11:30N 40°44' W 074°02'1 2.2
2018-Jun-18 11:00N 40°43' W 074°01'1 2.2
2018-Jun-18 10:31N 40°44' W 074°02'  
2018-Jun-15 23:10N 40°46' W 074°01'211.9
2018-Jun-15 23:00N 40°44' W 074°01'2 3.0
2018-Jun-15 22:30N 40°43' W 074°01'0 0.2
2018-Jun-15 22:00N 40°43' W 074°01'0 0.1
2018-Jun-15 21:31N 40°43' W 074°01'0 0.3
2018-Jun-15 21:00N 40°43' W 074°01'0 0.4
2018-Jun-15 20:30N 40°43' W 074°01'0 0.2
2018-Jun-15 20:00N 40°43' W 074°01'0 0.0
2018-Jun-15 19:30N 40°43' W 074°01'0 0.1
2018-Jun-15 19:00N 40°43' W 074°01'0 0.1
2018-Jun-15 18:30N 40°43' W 074°01'0 0.0
2018-Jun-15 18:01N 40°43' W 074°01'0 0.0
2018-Jun-15 17:31N 40°43' W 074°01'0 0.3
2018-Jun-15 17:00N 40°43' W 074°01'0 0.6
2018-Jun-15 16:30N 40°43' W 074°02'0 0.3
2018-Jun-15 16:00N 40°43' W 074°01'0 0.4
2018-Jun-15 15:30N 40°43' W 074°01'0 0.1
2018-Jun-15 15:01N 40°43' W 074°01'0 0.6
2018-Jun-15 14:31N 40°43' W 074°01'0 0.6
2018-Jun-15 14:01N 40°43' W 074°01'1 2.5
2018-Jun-15 13:31N 40°44' W 074°02'1 2.4
2018-Jun-15 13:00N 40°43' W 074°01'1 2.4
2018-Jun-15 12:30N 40°44' W 074°02'1 2.4
2018-Jun-15 12:00N 40°43' W 074°01'1 2.4
2018-Jun-15 11:30N 40°44' W 074°02'1 2.4
2018-Jun-15 11:00N 40°43' W 074°01'1 2.4
2018-Jun-15 10:30N 40°44' W 074°02'0 0.0
2018-Jun-14 23:00N 40°44' W 074°02'1 2.5
2018-Jun-14 22:31N 40°43' W 074°01'1 2.4
2018-Jun-14 22:01N 40°44' W 074°02'1 2.5
2018-Jun-14 21:30N 40°43' W 074°01'1 2.5
2018-Jun-14 21:00N 40°44' W 074°02'1 2.4
2018-Jun-14 20:30N 40°43' W 074°01'1 2.5
2018-Jun-14 20:00N 40°44' W 074°02'1 2.5
2018-Jun-14 19:31N 40°43' W 074°01'1 2.3
2018-Jun-14 19:00N 40°44' W 074°02'3 0.5
2018-Jun-14 14:20N 40°46' W 074°00'310.4
2018-Jun-14 14:00N 40°43' W 074°01'1 2.5
2018-Jun-14 13:31N 40°44' W 074°02'1 2.5
2018-Jun-14 13:00N 40°43' W 074°01'1 2.5
2018-Jun-14 12:30N 40°44' W 074°02'1 2.5
2018-Jun-14 12:00N 40°43' W 074°01'1 2.5
2018-Jun-14 11:30N 40°44' W 074°02'1 2.4
2018-Jun-14 11:00N 40°43' W 074°01'1 2.5
2018-Jun-14 10:30N 40°44' W 074°02'1 0.1
2018-Jun-14 00:25N 40°44' W 074°02'1 1.6
2018-Jun-14 00:00N 40°43' W 074°01'0 0.1
2018-Jun-13 23:31N 40°43' W 074°01'0 0.0
2018-Jun-13 23:00N 40°43' W 074°01'0 0.1
2018-Jun-13 22:31N 40°43' W 074°01'1 2.4
2018-Jun-13 22:00N 40°44' W 074°02'1 2.5
2018-Jun-13 21:30N 40°43' W 074°01'1 2.5
2018-Jun-13 21:00N 40°44' W 074°02'1 2.4
2018-Jun-13 20:30N 40°43' W 074°01'1 2.4
2018-Jun-13 20:00N 40°44' W 074°02'1 2.5
2018-Jun-13 19:30N 40°43' W 074°01'0 0.2
2018-Jun-13 19:00N 40°43' W 074°01'3 5.8
2018-Jun-13 18:31N 40°46' W 074°01'0 0.2
2018-Jun-13 16:58N 40°46' W 074°01'3 7.1
2018-Jun-13 16:30N 40°43' W 074°01'0 0.4
2018-Jun-13 16:00N 40°43' W 074°01'0 0.1
2018-Jun-13 15:30N 40°43' W 074°01'0 0.3
2018-Jun-13 15:00N 40°43' W 074°01'0 0.1
2018-Jun-13 14:31N 40°43' W 074°01'0 0.3
2018-Jun-13 14:00N 40°43' W 074°01'1 2.4
2018-Jun-13 13:30N 40°44' W 074°02'1 2.4
2018-Jun-13 13:00N 40°43' W 074°01'1 2.3
2018-Jun-13 12:28N 40°44' W 074°02'1 2.7
2018-Jun-13 12:01N 40°43' W 074°01'1 2.4
2018-Jun-13 11:30N 40°44' W 074°02'1 2.4
2018-Jun-13 11:00N 40°43' W 074°01'1 2.4
2018-Jun-13 10:31N 40°44' W 074°02'0 0.0
2018-Jun-12 22:58N 40°44' W 074°02'1 2.6
2018-Jun-12 22:30N 40°43' W 074°01'1 2.4
2018-Jun-12 22:00N 40°44' W 074°02'1 2.5
2018-Jun-12 21:30N 40°43' W 074°01'1 2.5
2018-Jun-12 21:00N 40°44' W 074°02'1 2.4
2018-Jun-12 20:30N 40°43' W 074°01'1 2.4
2018-Jun-12 20:00N 40°44' W 074°02'1 1.7
2018-Jun-12 19:25N 40°43' W 074°01'0 0.7
2018-Jun-12 19:00N 40°43' W 074°01'1 1.5
2018-Jun-12 18:30N 40°44' W 074°02'2 0.5
2018-Jun-12 14:18N 40°46' W 074°01'311.5
2018-Jun-12 14:00N 40°43' W 074°01'1 2.5
2018-Jun-12 13:30N 40°44' W 074°02'1 2.5
2018-Jun-12 13:00N 40°43' W 074°01'1 2.5
2018-Jun-12 12:31N 40°44' W 074°02'1 2.5
2018-Jun-12 12:00N 40°43' W 074°01'1 2.5
2018-Jun-12 11:30N 40°44' W 074°02'1 2.5
2018-Jun-12 11:00N 40°43' W 074°01'  
Track history (hours):
 
Tides and Currents Weather Stations Pressure Air Temp Water Temp Dewpoint Dewpoint Depression Visibility Wind Speed Wind Dir Waves Ship Positions

Garden State

Owner: Port Imperial Fery Corp., Weehawken, NJ. More information available from US FCC via Universal Licensing System and Coast Guard Vessel Documentation Center.

Last reported at 2018-Jun-22 10:40 UTC. Time now 2018-Jun-24 20:43 UTC.
Position N 40°46' W 074°01'.

Length 24 m; draft 2 m.

Type: Passenger vessel. MMSI: 366629680.

Date/timePositionNaut miles runAvg speedWind from/ knotsBaromVisibWave heightAir tempDewpointWater temp
2018-Jun-22 10:40N 40°46' W 074°01'0 0.0
2018-Jun-22 10:30N 40°46' W 074°01'0 0.0
2018-Jun-21 19:20N 40°46' W 074°01'3 9.2
2018-Jun-21 19:00N 40°43' W 074°02'1 1.1
2018-Jun-21 18:30N 40°43' W 074°01'0 0.1
2018-Jun-21 18:00N 40°43' W 074°01'0 0.4
2018-Jun-21 17:30N 40°43' W 074°01'0 0.1
2018-Jun-21 17:00N 40°43' W 074°01'0 0.1
2018-Jun-21 16:31N 40°43' W 074°01'0 0.8
2018-Jun-21 16:00N 40°43' W 074°02'0 0.7
2018-Jun-21 15:30N 40°43' W 074°01'0 0.7
2018-Jun-21 15:00N 40°43' W 074°02'0 0.8
2018-Jun-21 14:30N 40°43' W 074°01'0 0.4
2018-Jun-21 14:00N 40°43' W 074°01'1 2.4
2018-Jun-21 13:30N 40°44' W 074°02'1 2.5
2018-Jun-21 13:01N 40°43' W 074°01'1 2.5
2018-Jun-21 12:30N 40°44' W 074°02'1 2.5
2018-Jun-21 12:00N 40°43' W 074°01'1 2.5
2018-Jun-21 11:30N 40°44' W 074°02'1 2.5
2018-Jun-21 11:00N 40°43' W 074°01'1 0.1
2018-Jun-20 22:56N 40°44' W 074°02'1 2.8
2018-Jun-20 22:30N 40°43' W 074°01'1 2.3
2018-Jun-20 22:00N 40°44' W 074°02'1 2.4
2018-Jun-20 21:30N 40°43' W 074°01'1 2.4
2018-Jun-20 21:00N 40°44' W 074°02'1 2.3
2018-Jun-20 20:31N 40°43' W 074°01'1 2.3
2018-Jun-20 20:00N 40°44' W 074°02'1 2.4
2018-Jun-20 19:30N 40°43' W 074°01'1 1.8
2018-Jun-20 19:00N 40°44' W 074°01'3 0.6
2018-Jun-20 14:53N 40°46' W 074°01'1 3.9
2018-Jun-20 14:31N 40°45' W 074°01'2 3.7
2018-Jun-20 14:00N 40°43' W 074°01'1 2.3
2018-Jun-20 13:30N 40°44' W 074°02'1 2.4
2018-Jun-20 13:00N 40°43' W 074°01'1 2.4
2018-Jun-20 12:30N 40°44' W 074°02'1 2.4
2018-Jun-20 12:00N 40°43' W 074°01'1 2.4
2018-Jun-20 11:30N 40°44' W 074°02'1 2.4
2018-Jun-20 11:00N 40°43' W 074°01'1 2.4
2018-Jun-20 10:30N 40°44' W 074°02'0 0.0
2018-Jun-19 23:00N 40°44' W 074°02'1 2.5
2018-Jun-19 22:30N 40°43' W 074°01'1 2.3
2018-Jun-19 22:00N 40°44' W 074°01'1 2.3
2018-Jun-19 21:31N 40°43' W 074°01'1 2.4
2018-Jun-19 21:00N 40°44' W 074°02'1 2.4
2018-Jun-19 20:30N 40°43' W 074°01'1 2.3
2018-Jun-19 20:00N 40°44' W 074°02'1 2.4
2018-Jun-19 19:30N 40°43' W 074°01'1 1.3
2018-Jun-19 19:00N 40°43' W 074°02'1 1.4
2018-Jun-19 18:30N 40°43' W 074°01'0 0.1
2018-Jun-19 18:00N 40°43' W 074°01'0 0.1
2018-Jun-19 17:30N 40°43' W 074°01'0 0.2
2018-Jun-19 17:01N 40°43' W 074°01'0 0.0
2018-Jun-19 16:31N 40°43' W 074°01'0 0.6
2018-Jun-19 16:00N 40°43' W 074°02'0 0.6
2018-Jun-19 15:30N 40°43' W 074°01'0 0.5
2018-Jun-19 15:01N 40°43' W 074°02'0 0.4
2018-Jun-19 14:30N 40°43' W 074°01'0 0.4
2018-Jun-19 14:00N 40°43' W 074°01'1 2.6
2018-Jun-19 13:30N 40°44' W 074°02'1 2.5
2018-Jun-19 13:00N 40°43' W 074°01'1 2.5
2018-Jun-19 12:30N 40°44' W 074°02'1 2.4
2018-Jun-19 12:00N 40°43' W 074°01'1 2.4
2018-Jun-19 11:30N 40°44' W 074°02'1 2.4
2018-Jun-19 11:00N 40°43' W 074°01'1 2.4
2018-Jun-19 10:30N 40°44' W 074°02'0 0.0
2018-Jun-18 22:56N 40°44' W 074°02'1 2.7
2018-Jun-18 22:30N 40°43' W 074°01'1 2.4
2018-Jun-18 22:00N 40°44' W 074°02'1 2.5
2018-Jun-18 21:30N 40°43' W 074°01'1 2.5
2018-Jun-18 21:00N 40°44' W 074°02'1 2.5
2018-Jun-18 20:30N 40°43' W 074°01'1 2.5
2018-Jun-18 20:00N 40°44' W 074°02'1 2.6
2018-Jun-18 19:30N 40°43' W 074°01'0 0.3
2018-Jun-18 19:00N 40°43' W 074°01'1 2.2
2018-Jun-18 18:30N 40°44' W 074°02'2 0.5
2018-Jun-18 14:16N 40°46' W 074°01'312.6
2018-Jun-18 14:01N 40°43' W 074°01'1 2.4
2018-Jun-18 13:30N 40°44' W 074°02'1 2.4
2018-Jun-18 13:01N 40°43' W 074°01'1 2.5
2018-Jun-18 12:31N 40°44' W 074°02'1 2.5
2018-Jun-18 12:00N 40°43' W 074°01'1 2.5
2018-Jun-18 11:30N 40°44' W 074°02'1 2.2
2018-Jun-18 11:00N 40°43' W 074°01'1 2.2
2018-Jun-18 10:31N 40°44' W 074°02'  
2018-Jun-15 23:10N 40°46' W 074°01'211.9
2018-Jun-15 23:00N 40°44' W 074°01'2 3.0
2018-Jun-15 22:30N 40°43' W 074°01'0 0.2
2018-Jun-15 22:00N 40°43' W 074°01'0 0.1
2018-Jun-15 21:31N 40°43' W 074°01'0 0.3
2018-Jun-15 21:00N 40°43' W 074°01'0 0.4
2018-Jun-15 20:30N 40°43' W 074°01'0 0.2
2018-Jun-15 20:00N 40°43' W 074°01'0 0.0
2018-Jun-15 19:30N 40°43' W 074°01'0 0.1
2018-Jun-15 19:00N 40°43' W 074°01'0 0.1
2018-Jun-15 18:30N 40°43' W 074°01'0 0.0
2018-Jun-15 18:01N 40°43' W 074°01'0 0.0
2018-Jun-15 17:31N 40°43' W 074°01'0 0.3
2018-Jun-15 17:00N 40°43' W 074°01'0 0.6
2018-Jun-15 16:30N 40°43' W 074°02'0 0.3
2018-Jun-15 16:00N 40°43' W 074°01'0 0.4
2018-Jun-15 15:30N 40°43' W 074°01'0 0.1
2018-Jun-15 15:01N 40°43' W 074°01'0 0.6
2018-Jun-15 14:31N 40°43' W 074°01'0 0.6
2018-Jun-15 14:01N 40°43' W 074°01'1 2.5
2018-Jun-15 13:31N 40°44' W 074°02'1 2.4
2018-Jun-15 13:00N 40°43' W 074°01'1 2.4
2018-Jun-15 12:30N 40°44' W 074°02'1 2.4
2018-Jun-15 12:00N 40°43' W 074°01'1 2.4
2018-Jun-15 11:30N 40°44' W 074°02'1 2.4
2018-Jun-15 11:00N 40°43' W 074°01'1 2.4
2018-Jun-15 10:30N 40°44' W 074°02'0 0.0
2018-Jun-14 23:00N 40°44' W 074°02'1 2.5
2018-Jun-14 22:31N 40°43' W 074°01'1 2.4
2018-Jun-14 22:01N 40°44' W 074°02'1 2.5
2018-Jun-14 21:30N 40°43' W 074°01'1 2.5
2018-Jun-14 21:00N 40°44' W 074°02'1 2.4
2018-Jun-14 20:30N 40°43' W 074°01'1 2.5
2018-Jun-14 20:00N 40°44' W 074°02'1 2.5
2018-Jun-14 19:31N 40°43' W 074°01'1 2.3
2018-Jun-14 19:00N 40°44' W 074°02'3 0.5
2018-Jun-14 14:20N 40°46' W 074°00'310.4
2018-Jun-14 14:00N 40°43' W 074°01'1 2.5
2018-Jun-14 13:31N 40°44' W 074°02'1 2.5
2018-Jun-14 13:00N 40°43' W 074°01'1 2.5
2018-Jun-14 12:30N 40°44' W 074°02'1 2.5
2018-Jun-14 12:00N 40°43' W 074°01'1 2.5
2018-Jun-14 11:30N 40°44' W 074°02'1 2.4
2018-Jun-14 11:00N 40°43' W 074°01'1 2.5
2018-Jun-14 10:30N 40°44' W 074°02'1 0.1
2018-Jun-14 00:25N 40°44' W 074°02'1 1.6
2018-Jun-14 00:00N 40°43' W 074°01'0 0.1
2018-Jun-13 23:31N 40°43' W 074°01'0 0.0
2018-Jun-13 23:00N 40°43' W 074°01'0 0.1
2018-Jun-13 22:31N 40°43' W 074°01'1 2.4
2018-Jun-13 22:00N 40°44' W 074°02'1 2.5
2018-Jun-13 21:30N 40°43' W 074°01'1 2.5
2018-Jun-13 21:00N 40°44' W 074°02'1 2.4
2018-Jun-13 20:30N 40°43' W 074°01'1 2.4
2018-Jun-13 20:00N 40°44' W 074°02'1 2.5
2018-Jun-13 19:30N 40°43' W 074°01'0 0.2
2018-Jun-13 19:00N 40°43' W 074°01'3 5.8
2018-Jun-13 18:31N 40°46' W 074°01'0 0.2
2018-Jun-13 16:58N 40°46' W 074°01'3 7.1
2018-Jun-13 16:30N 40°43' W 074°01'0 0.4
2018-Jun-13 16:00N 40°43' W 074°01'0 0.1
2018-Jun-13 15:30N 40°43' W 074°01'0 0.3
2018-Jun-13 15:00N 40°43' W 074°01'0 0.1
2018-Jun-13 14:31N 40°43' W 074°01'0 0.3
2018-Jun-13 14:00N 40°43' W 074°01'1 2.4
2018-Jun-13 13:30N 40°44' W 074°02'1 2.4
2018-Jun-13 13:00N 40°43' W 074°01'1 2.3
2018-Jun-13 12:28N 40°44' W 074°02'1 2.7
2018-Jun-13 12:01N 40°43' W 074°01'1 2.4
2018-Jun-13 11:30N 40°44' W 074°02'1 2.4
2018-Jun-13 11:00N 40°43' W 074°01'1 2.4
2018-Jun-13 10:31N 40°44' W 074°02'0 0.0
2018-Jun-12 22:58N 40°44' W 074°02'1 2.6
2018-Jun-12 22:30N 40°43' W 074°01'1 2.4
2018-Jun-12 22:00N 40°44' W 074°02'1 2.5
2018-Jun-12 21:30N 40°43' W 074°01'1 2.5
2018-Jun-12 21:00N 40°44' W 074°02'1 2.4
2018-Jun-12 20:30N 40°43' W 074°01'1 2.4
2018-Jun-12 20:00N 40°44' W 074°02'1 1.7
2018-Jun-12 19:25N 40°43' W 074°01'0 0.7
2018-Jun-12 19:00N 40°43' W 074°01'1 1.5
2018-Jun-12 18:30N 40°44' W 074°02'2 0.5
2018-Jun-12 14:18N 40°46' W 074°01'311.5
2018-Jun-12 14:00N 40°43' W 074°01'1 2.5
2018-Jun-12 13:30N 40°44' W 074°02'1 2.5
2018-Jun-12 13:00N 40°43' W 074°01'1 2.5
2018-Jun-12 12:31N 40°44' W 074°02'1 2.5
2018-Jun-12 12:00N 40°43' W 074°01'1 2.5
2018-Jun-12 11:30N 40°44' W 074°02'1 2.5
2018-Jun-12 11:00N 40°43' W 074°01'  

Dump ship's entire track history